createdAt,value
2022-12-23T00:01:23.054Z,14.07
2022-12-23T00:03:50.872Z,13.32
2022-12-23T00:06:19.596Z,11.05
2022-12-23T00:08:47.014Z,14.50
2022-12-23T00:11:18.187Z,11.48
2022-12-23T00:14:04.535Z,13.20
2022-12-23T00:16:31.993Z,13.55
2022-12-23T00:18:59.044Z,14.40
2022-12-23T00:21:26.042Z,14.85
2022-12-23T00:23:53.059Z,13.88
2022-12-23T00:26:23.534Z,12.37
2022-12-23T00:28:51.265Z,13.23
2022-12-23T00:31:19.545Z,13.35
2022-12-23T00:33:48.264Z,14.43
2022-12-23T00:36:28.541Z,13.25
2022-12-23T00:39:18.540Z,15.40
2022-12-23T00:42:04.207Z,13.25
2022-12-23T00:44:31.279Z,14.75
2022-12-23T00:46:58.447Z,14.68
2022-12-23T00:49:43.595Z,15.10
2022-12-23T00:52:13.829Z,14.90
2022-12-23T00:54:41.353Z,14.63
2022-12-23T00:57:08.397Z,15.15
2022-12-23T00:59:35.522Z,15.43
2022-12-23T01:02:21.327Z,16.75
2022-12-23T01:05:06.855Z,16.40
2022-12-23T01:07:33.917Z,16.08
2022-12-23T01:10:00.925Z,18.20
2022-12-23T01:12:28.643Z,18.15
2022-12-23T01:14:55.634Z,16.23
2022-12-23T01:17:22.730Z,14.83
2022-12-23T01:19:49.895Z,17.40
2022-12-23T01:22:16.936Z,17.38
2022-12-23T01:24:44.073Z,15.38
2022-12-23T01:27:11.068Z,17.10
2022-12-23T01:29:38.119Z,16.67
2022-12-23T01:32:05.293Z,15.90
2022-12-23T01:34:36.750Z,16.55
2022-12-23T01:37:05.573Z,14.93
2022-12-23T01:39:32.952Z,17.02
2022-12-23T01:42:18.649Z,14.80
2022-12-23T01:44:51.468Z,15.68
2022-12-23T01:47:27.869Z,16.98
2022-12-23T01:50:01.958Z,16.63
2022-12-23T01:52:33.041Z,15.70
2022-12-23T01:55:00.123Z,17.23
2022-12-23T01:57:27.256Z,17.70
2022-12-23T02:00:13.320Z,18.85
2022-12-23T02:03:01.354Z,17.02
2022-12-23T02:05:28.858Z,19.55
2022-12-23T02:08:14.849Z,18.33
2022-12-23T02:11:11.902Z,19.15
2022-12-23T02:14:07.352Z,16.88
2022-12-23T02:16:53.748Z,20.30
2022-12-23T02:19:49.838Z,17.02
2022-12-23T02:22:25.434Z,21.43
2022-12-23T02:25:43.476Z,19.33
2022-12-23T02:28:25.707Z,21.90
2022-12-23T02:31:09.708Z,21.70
2022-12-23T02:33:50.684Z,21.48
2022-12-23T02:36:41.531Z,20.60
2022-12-23T02:39:45.232Z,20.42
2022-12-23T02:42:17.439Z,22.60
2022-12-23T02:44:52.902Z,22.25
2022-12-23T02:47:25.052Z,23.58
2022-12-23T02:49:55.981Z,22.67
2022-12-23T02:52:29.705Z,23.88
2022-12-23T02:55:06.541Z,23.30
2022-12-23T02:57:37.559Z,23.23
2022-12-23T03:00:06.734Z,23.02
2022-12-23T03:02:39.820Z,26.23
2022-12-23T03:05:23.643Z,26.02
2022-12-23T03:07:53.549Z,25.67
2022-12-23T03:10:50.630Z,22.27
2022-12-23T03:13:37.723Z,23.38
2022-12-23T03:16:07.804Z,22.50
2022-12-23T03:19:02.528Z,25.73
2022-12-23T03:21:39.955Z,21.48
2022-12-23T03:24:20.957Z,23.90
2022-12-23T03:27:06.761Z,22.50
2022-12-23T03:29:42.833Z,22.93
2022-12-23T03:32:13.220Z,25.55
2022-12-23T03:34:45.357Z,25.17
2022-12-23T03:37:16.102Z,23.98
2022-12-23T03:39:53.100Z,29.00
2022-12-23T03:42:28.784Z,26.10
2022-12-23T03:45:36.537Z,21.63
2022-12-23T03:47:59.766Z,25.92
2022-12-23T03:50:28.784Z,24.15
2022-12-23T03:53:03.165Z,26.05
2022-12-23T03:55:41.427Z,31.57
2022-12-23T03:58:28.703Z,25.05
2022-12-23T04:01:02.267Z,26.60
2022-12-23T04:03:42.260Z,26.73
2022-12-23T04:06:14.537Z,23.38
2022-12-23T04:08:43.949Z,22.23
2022-12-23T04:11:12.004Z,27.45
2022-12-23T04:13:39.117Z,25.63
2022-12-23T04:16:07.845Z,28.92
2022-12-23T04:18:34.916Z,29.77
2022-12-23T04:21:01.916Z,26.37
2022-12-23T04:23:29.306Z,27.27
2022-12-23T04:25:56.262Z,28.63
2022-12-23T04:28:23.291Z,27.10
2022-12-23T04:30:50.253Z,26.88
2022-12-23T04:33:17.217Z,26.27
2022-12-23T04:35:44.253Z,27.90
2022-12-23T04:38:11.281Z,28.25
2022-12-23T04:40:38.416Z,29.30
2022-12-23T04:43:05.375Z,29.42
2022-12-23T04:45:32.859Z,26.07
2022-12-23T04:47:59.983Z,24.67
2022-12-23T04:50:27.037Z,23.85
2022-12-23T04:52:54.054Z,23.00
2022-12-23T04:55:21.383Z,25.38
2022-12-23T04:57:48.399Z,23.43
2022-12-23T05:00:16.055Z,20.25
2022-12-23T05:02:43.313Z,20.35
2022-12-23T05:05:10.653Z,23.85
2022-12-23T05:07:37.658Z,23.35
2022-12-23T05:10:04.946Z,19.30
2022-12-23T05:12:32.032Z,21.80
2022-12-23T05:14:59.178Z,23.05
2022-12-23T05:17:26.241Z,23.15
2022-12-23T05:19:53.264Z,18.83
2022-12-23T05:22:20.303Z,21.57
2022-12-23T05:24:47.471Z,23.33
2022-12-23T05:27:14.464Z,22.23
2022-12-23T05:29:41.536Z,23.25
2022-12-23T05:32:08.680Z,19.88
2022-12-23T05:34:35.682Z,18.83
2022-12-23T05:37:02.640Z,21.77
2022-12-23T05:39:29.806Z,21.08
2022-12-23T05:41:56.863Z,20.35
2022-12-23T05:44:23.904Z,21.70
2022-12-23T05:46:50.985Z,17.77
2022-12-23T05:49:18.031Z,22.33
2022-12-23T05:51:45.042Z,23.77
2022-12-23T05:54:12.053Z,19.73
2022-12-23T05:56:39.083Z,18.30
2022-12-23T05:59:06.069Z,19.77
2022-12-23T06:01:33.174Z,21.23
2022-12-23T06:04:00.284Z,20.08
2022-12-23T06:06:27.439Z,19.52
2022-12-23T06:08:59.350Z,22.33
2022-12-23T06:11:26.977Z,23.83
2022-12-23T06:13:53.982Z,21.40
2022-12-23T06:16:21.160Z,19.40
2022-12-23T06:18:48.281Z,22.38
2022-12-23T06:21:15.289Z,21.98
2022-12-23T06:23:42.251Z,17.40
2022-12-23T06:26:09.261Z,20.02
2022-12-23T06:28:36.281Z,20.70
2022-12-23T06:31:03.238Z,22.48
2022-12-23T06:33:30.254Z,19.92
2022-12-23T06:35:57.407Z,23.00
2022-12-23T06:38:24.746Z,19.80
2022-12-23T06:40:51.780Z,23.55
2022-12-23T06:43:18.988Z,20.65
2022-12-23T06:45:49.745Z,21.33
2022-12-23T06:48:17.793Z,19.60
2022-12-23T06:50:44.902Z,20.25
2022-12-23T06:53:12.175Z,19.02
2022-12-23T06:55:39.449Z,20.40
2022-12-23T06:58:06.465Z,20.55
2022-12-23T07:00:33.764Z,19.53
2022-12-23T07:03:01.262Z,19.15
2022-12-23T07:05:34.870Z,16.25
2022-12-23T07:08:03.952Z,20.38
2022-12-23T07:10:31.011Z,20.33
2022-12-23T07:12:58.057Z,22.83
2022-12-23T07:15:25.080Z,20.35
2022-12-23T07:17:52.121Z,20.63
2022-12-23T07:20:19.274Z,21.58
2022-12-23T07:22:46.516Z,17.52
2022-12-23T07:25:13.843Z,17.60
2022-12-23T07:27:40.978Z,18.77
2022-12-23T07:30:08.692Z,20.15
2022-12-23T07:32:35.784Z,20.95
2022-12-23T07:35:02.946Z,18.88
2022-12-23T07:37:31.303Z,18.23
2022-12-23T07:40:00.046Z,20.80
2022-12-23T07:42:45.128Z,19.48
2022-12-23T07:45:13.460Z,26.58
2022-12-23T07:47:43.019Z,23.90
2022-12-23T07:50:10.458Z,22.20
2022-12-23T07:52:37.921Z,21.17
2022-12-23T07:55:05.716Z,19.95
2022-12-23T07:57:37.982Z,22.13
2022-12-23T08:00:07.392Z,20.17
2022-12-23T08:02:40.589Z,19.87
2022-12-23T08:05:08.561Z,22.48
2022-12-23T08:07:36.191Z,18.88
2022-12-23T08:10:04.424Z,18.63
2022-12-23T08:12:31.521Z,20.38
2022-12-23T08:14:58.741Z,17.47
2022-12-23T08:17:30.636Z,20.55
2022-12-23T08:19:57.677Z,19.00
2022-12-23T08:22:25.125Z,18.45
2022-12-23T08:24:52.806Z,18.38
2022-12-23T08:27:19.871Z,17.63
2022-12-23T08:29:47.013Z,23.65
2022-12-23T08:32:14.209Z,17.70
2022-12-23T08:34:41.183Z,18.85
2022-12-23T08:37:08.196Z,22.98
2022-12-23T08:39:36.591Z,19.47
2022-12-23T08:42:04.036Z,20.33
2022-12-23T08:44:32.741Z,22.80
2022-12-23T08:47:00.217Z,23.55
2022-12-23T08:49:27.266Z,20.27
2022-12-23T08:51:54.370Z,19.07
2022-12-23T08:54:22.348Z,24.23
2022-12-23T08:56:49.469Z,27.80
2022-12-23T08:59:19.510Z,31.50
2022-12-23T09:01:48.327Z,29.55
2022-12-23T09:04:15.991Z,25.33
2022-12-23T09:06:43.429Z,26.55
2022-12-23T09:09:12.866Z,22.33
2022-12-23T09:11:40.024Z,26.30
2022-12-23T09:14:10.325Z,23.17
2022-12-23T09:16:37.711Z,26.30
2022-12-23T09:19:05.002Z,28.75
2022-12-23T09:21:32.275Z,27.52
2022-12-23T09:23:59.310Z,29.70
2022-12-23T09:26:29.021Z,23.83
2022-12-23T09:28:57.319Z,24.27
2022-12-23T09:31:27.850Z,22.60
2022-12-23T09:33:59.540Z,26.00
2022-12-23T09:36:26.611Z,21.48
2022-12-23T09:38:57.569Z,23.45
2022-12-23T09:41:50.757Z,24.77
2022-12-23T09:44:59.739Z,24.17
2022-12-23T09:47:29.938Z,24.58
2022-12-23T09:50:10.964Z,21.73
2022-12-23T09:52:50.045Z,21.10
2022-12-23T09:55:19.118Z,21.20
2022-12-23T09:57:53.310Z,22.42
2022-12-23T10:00:21.943Z,19.40
2022-12-23T10:02:54.899Z,24.30
2022-12-23T10:05:35.596Z,21.92
2022-12-23T10:08:07.529Z,19.17
2022-12-23T10:10:42.704Z,20.77
2022-12-23T10:13:29.856Z,21.17
2022-12-23T10:16:03.537Z,23.25
2022-12-23T10:18:48.064Z,21.30
2022-12-23T10:21:24.807Z,16.37
2022-12-23T10:23:54.425Z,19.48
2022-12-23T10:26:29.523Z,20.95
2022-12-23T10:29:05.985Z,20.27
2022-12-23T10:32:00.378Z,19.38
2022-12-23T10:35:01.630Z,17.47
2022-12-23T10:37:33.147Z,18.13
2022-12-23T10:40:19.692Z,18.58
2022-12-23T10:43:09.863Z,16.25
2022-12-23T10:45:55.297Z,18.65
2022-12-23T10:49:00.397Z,23.40
2022-12-23T10:51:36.824Z,20.98
2022-12-23T10:54:10.494Z,17.83
2022-12-23T10:56:37.929Z,21.40
2022-12-23T10:59:07.514Z,21.88
2022-12-23T11:01:34.836Z,23.47
2022-12-23T11:04:01.872Z,20.02
2022-12-23T11:06:35.009Z,22.13
2022-12-23T11:09:05.768Z,20.77
2022-12-23T11:12:02.389Z,19.30
2022-12-23T11:14:42.421Z,20.47
2022-12-23T11:17:25.338Z,19.38
2022-12-23T11:20:10.654Z,21.77
2022-12-23T11:22:49.740Z,20.75
2022-12-23T11:25:37.822Z,18.52
2022-12-23T11:28:13.789Z,21.13
2022-12-23T11:30:55.133Z,19.52
2022-12-23T11:33:26.067Z,17.75
2022-12-23T11:36:08.792Z,19.17
2022-12-23T11:38:47.315Z,18.58
2022-12-23T11:41:29.647Z,22.53
2022-12-23T11:44:01.398Z,22.95
2022-12-23T11:46:32.760Z,20.58
2022-12-23T11:49:28.845Z,19.58
2022-12-23T11:52:02.068Z,24.80
2022-12-23T11:54:29.715Z,19.17
2022-12-23T11:56:57.693Z,21.15
2022-12-23T11:59:27.980Z,19.42
2022-12-23T12:01:58.445Z,17.05
2022-12-23T12:04:27.733Z,18.52
2022-12-23T12:06:56.781Z,20.23
2022-12-23T12:09:25.028Z,19.73
2022-12-23T12:11:58.903Z,18.70
2022-12-23T12:14:37.233Z,20.70
2022-12-23T12:17:20.685Z,19.25
2022-12-23T12:19:59.529Z,17.23
2022-12-23T12:22:45.272Z,18.85
2022-12-23T12:25:24.122Z,22.30
2022-12-23T12:28:00.086Z,21.45
2022-12-23T12:30:34.893Z,24.63
2022-12-23T12:33:35.867Z,19.47
2022-12-23T12:36:12.247Z,23.00
2022-12-23T12:38:40.504Z,19.48
2022-12-23T12:41:23.025Z,17.35
2022-12-23T12:44:15.830Z,17.77
2022-12-23T12:46:48.933Z,17.27
2022-12-23T12:49:41.283Z,21.40
2022-12-23T12:52:13.290Z,17.90
2022-12-23T12:54:48.498Z,19.95
2022-12-23T12:57:18.332Z,19.17
2022-12-23T12:59:48.268Z,21.50
2022-12-23T13:02:46.254Z,19.00
2022-12-23T13:05:54.087Z,18.10
2022-12-23T13:08:36.705Z,16.88
2022-12-23T13:11:28.751Z,15.82
2022-12-23T13:13:58.778Z,16.47
2022-12-23T13:16:55.132Z,16.88
2022-12-23T13:19:27.399Z,14.75
2022-12-23T13:22:10.328Z,17.35
2022-12-23T13:25:04.213Z,17.05
2022-12-23T13:27:52.978Z,17.10
2022-12-23T13:30:23.919Z,16.83
2022-12-23T13:33:06.958Z,15.20
2022-12-23T13:35:48.900Z,15.65
2022-12-23T13:38:53.070Z,21.25
2022-12-23T13:41:27.538Z,16.17
2022-12-23T13:43:58.397Z,12.82
2022-12-23T13:46:51.580Z,14.85
2022-12-23T13:49:55.159Z,13.43
2022-12-23T13:52:50.368Z,12.60
2022-12-23T13:55:36.008Z,11.53
2022-12-23T13:58:17.532Z,12.02
2022-12-23T14:00:45.149Z,10.57
2022-12-23T14:03:22.599Z,11.48
2022-12-23T14:05:51.076Z,10.88
2022-12-23T14:08:20.859Z,13.33
2022-12-23T14:10:50.912Z,12.05
2022-12-23T14:13:18.750Z,11.52
2022-12-23T14:15:56.209Z,10.25
2022-12-23T14:18:36.268Z,10.70
2022-12-23T14:21:16.137Z,10.20
2022-12-23T14:23:46.209Z,9.45
2022-12-23T14:26:19.363Z,7.95
2022-12-23T14:28:52.340Z,8.63
2022-12-23T14:32:01.116Z,7.47
2022-12-23T14:34:33.847Z,8.53
2022-12-23T14:37:24.278Z,9.63
2022-12-23T14:39:52.142Z,9.40
2022-12-23T14:42:40.497Z,8.90
2022-12-23T14:45:43.863Z,8.95
2022-12-23T14:48:37.125Z,8.67
2022-12-23T14:51:10.564Z,9.20
2022-12-23T14:54:00.202Z,7.53
2022-12-23T14:56:39.891Z,8.00
2022-12-23T14:59:07.984Z,8.05
2022-12-23T15:01:47.018Z,8.53
2022-12-23T15:04:14.377Z,6.68
2022-12-23T15:07:05.098Z,6.35
2022-12-23T15:09:37.800Z,6.70
2022-12-23T15:12:15.353Z,6.55
2022-12-23T15:14:47.430Z,7.40
2022-12-23T15:17:33.824Z,5.80
2022-12-23T15:20:10.095Z,8.45
2022-12-23T15:22:42.453Z,6.97
2022-12-23T15:25:31.766Z,11.68
2022-12-23T15:28:02.223Z,7.13
2022-12-23T15:30:35.133Z,6.60
2022-12-23T15:33:11.942Z,7.75
2022-12-23T15:35:53.400Z,8.02
2022-12-23T15:38:22.509Z,8.57
2022-12-23T15:41:01.525Z,8.47
2022-12-23T15:43:28.980Z,9.55
2022-12-23T15:46:30.192Z,8.05
2022-12-23T15:48:58.527Z,8.85
2022-12-23T15:52:05.050Z,9.65
2022-12-23T15:54:25.387Z,9.20
2022-12-23T15:56:54.274Z,9.70
2022-12-23T15:59:25.859Z,9.50
2022-12-23T16:01:53.800Z,10.65
2022-12-23T16:04:26.932Z,11.68
2022-12-23T16:06:54.904Z,11.50
2022-12-23T16:09:30.262Z,10.32
2022-12-23T16:12:21.992Z,13.02
2022-12-23T16:14:59.296Z,10.52
2022-12-23T16:17:37.505Z,12.35
2022-12-23T16:20:24.197Z,11.23
2022-12-23T16:22:58.828Z,12.73
2022-12-23T16:25:33.977Z,13.90
2022-12-23T16:28:13.014Z,12.93
2022-12-23T16:30:44.569Z,13.65
2022-12-23T16:33:30.348Z,16.70
2022-12-23T16:36:26.431Z,13.70
2022-12-23T16:39:00.185Z,14.88
2022-12-23T16:41:27.257Z,14.23
2022-12-23T16:43:54.300Z,13.85
2022-12-23T16:46:23.353Z,16.30
2022-12-23T16:48:55.557Z,15.07
2022-12-23T16:51:24.064Z,14.45
2022-12-23T16:53:55.390Z,13.35
2022-12-23T16:56:27.043Z,14.88
2022-12-23T16:58:54.241Z,13.80
2022-12-23T17:01:21.303Z,14.27
2022-12-23T17:03:48.447Z,14.93
2022-12-23T17:06:19.298Z,14.32
2022-12-23T17:08:47.140Z,13.75
2022-12-23T17:11:16.826Z,17.33
2022-12-23T17:13:44.762Z,14.98
2022-12-23T17:16:20.067Z,17.10
2022-12-23T17:18:48.712Z,17.45
2022-12-23T17:21:22.555Z,15.57
2022-12-23T17:23:52.093Z,15.53
2022-12-23T17:26:20.123Z,17.38
2022-12-23T17:28:47.136Z,16.58
2022-12-23T17:31:18.101Z,16.90
2022-12-23T17:33:47.995Z,17.00
2022-12-23T17:36:16.668Z,17.33
2022-12-23T17:38:43.696Z,17.42
2022-12-23T17:41:23.493Z,16.10
2022-12-23T17:43:50.673Z,20.92
2022-12-23T17:46:18.054Z,17.40
2022-12-23T17:48:47.089Z,17.70
2022-12-23T17:51:19.803Z,16.65
2022-12-23T17:53:53.130Z,16.45
2022-12-23T17:56:26.552Z,18.92
2022-12-23T17:58:54.074Z,20.48
2022-12-23T18:01:32.613Z,16.73
2022-12-23T18:04:00.893Z,18.55
2022-12-23T18:06:29.478Z,18.13
2022-12-23T18:08:57.522Z,15.63
2022-12-23T18:11:30.712Z,18.40
2022-12-23T18:13:57.846Z,17.20
2022-12-23T18:16:24.939Z,13.82
2022-12-23T18:18:52.990Z,14.60
2022-12-23T18:21:26.475Z,12.32
2022-12-23T18:23:58.896Z,14.65
2022-12-23T18:26:26.388Z,15.00
2022-12-23T18:28:54.442Z,14.32
2022-12-23T18:31:27.391Z,13.57
2022-12-23T18:33:55.091Z,13.63
2022-12-23T18:36:27.447Z,17.70
2022-12-23T18:38:55.242Z,15.43
2022-12-23T18:41:23.505Z,15.57
2022-12-23T18:43:52.052Z,13.60
2022-12-23T18:46:23.065Z,13.48
2022-12-23T18:48:51.920Z,13.68
2022-12-23T18:51:21.728Z,12.10
2022-12-23T18:53:49.290Z,15.40
2022-12-23T18:56:20.263Z,16.20
2022-12-23T18:58:47.675Z,13.98
2022-12-23T19:01:17.513Z,15.68
2022-12-23T19:03:45.108Z,15.10
2022-12-23T19:06:14.089Z,14.90
2022-12-23T19:08:42.866Z,13.60
2022-12-23T19:11:18.895Z,14.23
2022-12-23T19:13:46.471Z,13.65
2022-12-23T19:16:16.519Z,15.77
2022-12-23T19:19:09.340Z,15.00
2022-12-23T19:21:36.544Z,15.02
2022-12-23T19:24:17.143Z,13.93
2022-12-23T19:26:44.559Z,13.07
2022-12-23T19:29:15.329Z,19.37
2022-12-23T19:31:42.784Z,12.35
2022-12-23T19:34:14.988Z,15.05
2022-12-23T19:36:43.982Z,16.35
2022-12-23T19:39:16.818Z,16.88
2022-12-23T19:41:44.495Z,16.13
2022-12-23T19:44:11.713Z,14.02
2022-12-23T19:46:38.756Z,15.13
2022-12-23T19:49:06.030Z,15.60
2022-12-23T19:51:33.215Z,14.23
2022-12-23T19:54:00.212Z,14.67
2022-12-23T19:56:29.387Z,16.55
2022-12-23T19:58:56.680Z,15.45
2022-12-23T20:01:49.228Z,14.15
2022-12-23T20:04:16.313Z,16.88
2022-12-23T20:06:43.383Z,15.87
2022-12-23T20:09:13.127Z,16.17
2022-12-23T20:11:42.653Z,12.18
2022-12-23T20:14:10.282Z,15.82
2022-12-23T20:16:38.900Z,15.75
2022-12-23T20:19:06.901Z,13.47
2022-12-23T20:21:35.658Z,14.15
2022-12-23T20:24:02.910Z,14.93
2022-12-23T20:26:30.448Z,15.85
2022-12-23T20:28:57.799Z,13.18
2022-12-23T20:31:27.614Z,11.53
2022-12-23T20:33:55.836Z,14.25
2022-12-23T20:36:26.822Z,15.57
2022-12-23T20:38:54.010Z,13.63
2022-12-23T20:41:23.999Z,14.73
2022-12-23T20:44:31.764Z,14.50
2022-12-23T20:46:39.029Z,14.98
2022-12-23T20:49:06.145Z,13.60
2022-12-23T20:51:33.147Z,12.52
2022-12-23T20:54:01.112Z,12.65
2022-12-23T20:56:30.514Z,11.23
2022-12-23T20:59:33.422Z,11.55
2022-12-23T21:02:14.698Z,11.82
2022-12-23T21:04:41.991Z,13.48
2022-12-23T21:07:09.542Z,14.20
2022-12-23T21:09:36.626Z,13.10
2022-12-23T21:12:04.082Z,12.02
2022-12-23T21:14:31.535Z,11.75
2022-12-23T21:16:58.655Z,13.27
2022-12-23T21:19:26.252Z,13.38
2022-12-23T21:21:53.848Z,14.13
2022-12-23T21:24:21.237Z,13.00
2022-12-23T21:26:55.626Z,12.95
2022-12-23T21:29:23.502Z,13.48
2022-12-23T21:31:50.687Z,12.25
2022-12-23T21:34:18.142Z,15.30
2022-12-23T21:36:45.230Z,12.43
2022-12-23T21:39:16.710Z,12.07
2022-12-23T21:41:44.421Z,13.57
2022-12-23T21:44:14.558Z,12.65
2022-12-23T21:46:41.852Z,13.97
2022-12-23T21:49:09.569Z,12.48
2022-12-23T21:51:40.681Z,11.75
2022-12-23T21:54:10.746Z,11.35
2022-12-23T21:56:38.374Z,12.73
2022-12-23T21:59:14.245Z,15.17
2022-12-23T22:01:43.159Z,12.07
2022-12-23T22:04:11.100Z,12.95
2022-12-23T22:06:43.851Z,12.73
2022-12-23T22:09:15.718Z,13.50
2022-12-23T22:11:43.303Z,14.33
2022-12-23T22:14:12.486Z,12.80
2022-12-23T22:16:39.573Z,12.73
2022-12-23T22:19:08.772Z,14.82
2022-12-23T22:21:37.180Z,12.43
2022-12-23T22:24:04.924Z,15.20
2022-12-23T22:26:33.409Z,13.93
2022-12-23T22:29:03.762Z,12.25
2022-12-23T22:31:42.276Z,12.68
2022-12-23T22:34:13.663Z,13.38
2022-12-23T22:36:40.820Z,10.43
2022-12-23T22:39:08.334Z,13.90
2022-12-23T22:41:35.514Z,12.52
2022-12-23T22:44:02.712Z,9.52
2022-12-23T22:46:30.779Z,12.32
2022-12-23T22:48:59.007Z,12.67
2022-12-23T22:51:29.242Z,11.43
2022-12-23T22:53:56.709Z,10.40
2022-12-23T22:56:25.204Z,10.60
2022-12-23T22:58:53.622Z,11.27
2022-12-23T23:01:22.604Z,11.77
2022-12-23T23:03:56.951Z,12.25
2022-12-23T23:06:27.114Z,11.52
2022-12-23T23:08:55.821Z,12.02
2022-12-23T23:11:24.095Z,12.57
2022-12-23T23:13:51.435Z,11.60
2022-12-23T23:16:18.712Z,12.35
2022-12-23T23:18:45.853Z,12.75
2022-12-23T23:21:13.899Z,11.80
2022-12-23T23:23:41.090Z,11.52
2022-12-23T23:26:11.051Z,15.93
2022-12-23T23:28:39.603Z,12.82
2022-12-23T23:31:40.589Z,12.88
2022-12-23T23:33:54.779Z,14.73
2022-12-23T23:36:21.870Z,15.52
2022-12-23T23:38:48.884Z,15.97
2022-12-23T23:41:20.676Z,15.50
2022-12-23T23:43:50.116Z,14.73
2022-12-23T23:46:17.274Z,16.55
2022-12-23T23:48:44.301Z,15.18
2022-12-23T23:51:12.745Z,15.87
2022-12-23T23:53:40.458Z,17.73
2022-12-23T23:56:08.486Z,17.58
2022-12-23T23:58:36.844Z,17.40
